SARP

Details ICAO SARP (PSS)
Name POSADAS
Region Argentina
Timezone America/Argentina/Cordoba (UTC-3.0)
Plans Departing 17
Arriving 23
Stats Elevation 430 ft / 131 m (AMSL)
Location -27.385838° -55.970726°
Runways 1
Magnetic Variation 14.550° W
Sunrise 2017-12-16 08:45:08 UTC / 2017-12-16 05:45:08 Local
Sunset 2017-12-16 22:36:49 UTC / 2017-12-16 19:36:49 Local
Advertisement - Login to hide

Runways

ID Width Length Bearing (true) Bearing (mag) Surface Threshold Offset Overrun Length
01 98 ft / 30 m 7,433 ft / 2,266 m 359.33° 13.88° Asphalt 0 ft / 0 m 75 ft / 23 m
19 98 ft / 30 m 7,433 ft / 2,266 m 179.33° 193.88° Asphalt 0 ft / 0 m 75 ft / 23 m

Approach Navaids

Runway Type Ident Frequency Range Bearing (true) Bearing (mag) Slope Elevation
19 Localiser PO 109.90 MHz 18 nm / 33 km 178.76° 193.31° - 430 ft / 131 m (AMSL)
19 Glidescope PO 109.90 MHz 10 nm / 19 km 179.33° 193.88° 3.00° 430 ft / 131 m (AMSL)
19 DME PO 109.90 MHz 18 nm / 33 km - - - 429 ft / 131 m (AMSL)

Map

Weather


0- 5 10 15 20 25 30 35+ Temperature / ° C

Clouds and Precipitation
Forecast for 2017-12-16 06:00 UTC. Updated 2 hours ago

Ground ~20,000 ft ~40,000 ft Winds

METAR

SARP 160500Z 00000KT CAVOK 27/21 Q1008

TAF

TAF SARP 152300Z 1600/1624 VRB03KT CAVOK TX37/1618Z TN21/1609Z BECMG 1602/1604 05005KT CAVOK

Frequencies

Tower 120.10 MHz TWR/APP
Tower 118.50 MHz TWR/APP
Warning: Do not use this data for real-world aviation or navigation. No guarantee of current accuracy is given.